createdAt,value
2019-02-09T00:02:09.525Z,4.60
2019-02-09T00:04:37.483Z,1.50
2019-02-09T00:07:05.344Z,1.52
2019-02-09T00:09:32.975Z,2.08
2019-02-09T00:12:00.634Z,1.55
2019-02-09T00:14:28.537Z,1.62
2019-02-09T00:16:56.408Z,2.60
2019-02-09T00:19:24.271Z,1.67
2019-02-09T00:21:52.247Z,1.30
2019-02-09T00:24:20.211Z,1.90
2019-02-09T00:26:48.077Z,2.33
2019-02-09T00:29:16.049Z,2.58
2019-02-09T00:31:43.917Z,1.98
2019-02-09T00:34:11.911Z,3.02
2019-02-09T00:36:39.529Z,2.40
2019-02-09T00:39:07.414Z,1.47
2019-02-09T00:41:35.025Z,2.12
2019-02-09T00:44:02.951Z,2.80
2019-02-09T00:46:30.813Z,1.87
2019-02-09T00:48:58.803Z,1.65
2019-02-09T00:51:26.424Z,1.60
2019-02-09T00:53:54.046Z,1.92
2019-02-09T00:56:21.972Z,1.50
2019-02-09T00:58:49.945Z,1.67
2019-02-09T01:01:17.808Z,2.42
2019-02-09T01:03:45.425Z,1.30
2019-02-09T01:06:13.046Z,2.65
2019-02-09T01:08:41.004Z,2.62
2019-02-09T01:11:08.888Z,2.15
2019-02-09T01:13:36.840Z,1.40
2019-02-09T01:16:04.813Z,1.75
2019-02-09T01:18:32.704Z,1.37
2019-02-09T01:21:00.330Z,1.42
2019-02-09T01:23:27.941Z,2.20
2019-02-09T01:25:55.565Z,3.02
2019-02-09T01:28:23.428Z,1.50
2019-02-09T01:30:51.401Z,1.50
2019-02-09T01:33:19.287Z,1.42
2019-02-09T01:35:47.254Z,1.35
2019-02-09T01:38:15.210Z,1.50
2019-02-09T01:40:42.827Z,1.50
2019-02-09T01:43:10.733Z,1.80
2019-02-09T01:45:38.604Z,1.20
2019-02-09T01:48:06.469Z,1.82
2019-02-09T01:50:34.092Z,2.00
2019-02-09T01:53:02.016Z,2.20
2019-02-09T01:55:30.068Z,1.52
2019-02-09T01:57:57.939Z,1.27
2019-02-09T02:00:25.907Z,1.52
2019-02-09T02:02:54.288Z,1.77
2019-02-09T02:05:22.272Z,1.57
2019-02-09T02:07:50.223Z,1.32
2019-02-09T02:10:17.865Z,1.60
2019-02-09T02:12:45.760Z,1.37
2019-02-09T02:15:13.742Z,1.22
2019-02-09T02:17:41.696Z,1.27
2019-02-09T02:20:09.317Z,1.82
2019-02-09T02:22:37.224Z,1.95
2019-02-09T02:25:05.094Z,1.10
2019-02-09T02:27:32.718Z,1.20
2019-02-09T02:30:00.636Z,1.40
2019-02-09T02:32:28.609Z,1.05
2019-02-09T02:34:56.461Z,1.77
2019-02-09T02:37:24.101Z,2.05
2019-02-09T02:39:51.990Z,1.55
2019-02-09T02:42:19.957Z,1.42
2019-02-09T02:44:47.576Z,1.57
2019-02-09T02:47:15.509Z,1.57
2019-02-09T02:49:43.475Z,1.65
2019-02-09T02:52:11.440Z,0.80
2019-02-09T02:54:39.052Z,1.25
2019-02-09T02:57:06.957Z,2.22
2019-02-09T02:59:34.574Z,1.95
2019-02-09T03:02:02.501Z,1.20
2019-02-09T03:04:30.348Z,2.20
2019-02-09T03:06:58.220Z,1.10
2019-02-09T03:09:26.105Z,2.85
2019-02-09T03:11:54.055Z,1.77
2019-02-09T03:14:21.664Z,3.25
2019-02-09T03:16:49.586Z,0.80
2019-02-09T03:19:19.161Z,1.10
2019-02-09T03:21:46.870Z,1.30
2019-02-09T03:24:14.823Z,1.90
2019-02-09T03:26:42.446Z,1.10
2019-02-09T03:29:10.379Z,2.05
2019-02-09T03:31:38.332Z,1.17
2019-02-09T03:34:05.946Z,1.20
2019-02-09T03:36:33.855Z,1.67
2019-02-09T03:39:01.468Z,1.72
2019-02-09T03:41:29.082Z,1.42
2019-02-09T03:43:56.943Z,1.32
2019-02-09T03:46:24.563Z,1.27
2019-02-09T03:48:53.975Z,1.35
2019-02-09T03:51:22.097Z,1.87
2019-02-09T03:53:50.054Z,1.60
2019-02-09T03:56:18.039Z,1.25
2019-02-09T03:58:45.994Z,1.12
2019-02-09T04:01:13.957Z,1.52
2019-02-09T04:03:41.570Z,2.72
2019-02-09T04:06:09.188Z,1.20
2019-02-09T04:08:37.066Z,1.07
2019-02-09T04:11:04.696Z,1.32
2019-02-09T04:13:32.600Z,1.85
2019-02-09T04:16:00.208Z,1.57
2019-02-09T04:18:28.109Z,2.15
2019-02-09T04:20:55.981Z,2.30
2019-02-09T04:23:23.598Z,1.20
2019-02-09T04:25:51.214Z,1.47
2019-02-09T04:28:19.172Z,1.40
2019-02-09T04:30:47.032Z,1.20
2019-02-09T04:33:14.654Z,1.27
2019-02-09T04:35:42.264Z,1.30
2019-02-09T04:38:10.230Z,1.30
2019-02-09T04:40:38.092Z,1.62
2019-02-09T04:43:05.959Z,1.55
2019-02-09T04:45:33.853Z,2.17
2019-02-09T04:48:01.801Z,1.45
2019-02-09T04:50:29.668Z,1.52
2019-02-09T04:52:57.641Z,1.87
2019-02-09T04:55:25.291Z,1.55
2019-02-09T04:57:52.895Z,1.47
2019-02-09T05:00:20.826Z,1.40
2019-02-09T05:02:48.796Z,1.77
2019-02-09T05:05:16.480Z,1.30
2019-02-09T05:07:44.427Z,2.05
2019-02-09T05:10:12.319Z,1.42
2019-02-09T05:12:40.264Z,1.82
2019-02-09T05:15:08.138Z,1.25
2019-02-09T05:17:36.105Z,1.67
2019-02-09T05:20:03.970Z,1.55
2019-02-09T05:22:31.584Z,2.50
2019-02-09T05:24:59.200Z,1.35
2019-02-09T05:27:27.180Z,1.65
2019-02-09T05:29:55.048Z,2.37
2019-02-09T05:32:22.666Z,1.25
2019-02-09T05:34:50.356Z,2.27
2019-02-09T05:37:17.976Z,1.12
2019-02-09T05:39:45.600Z,0.80
2019-02-09T05:42:13.212Z,1.10
2019-02-09T05:44:40.828Z,1.90
2019-02-09T05:47:08.768Z,1.60
2019-02-09T05:49:36.461Z,1.62
2019-02-09T05:52:04.402Z,1.90
2019-02-09T05:54:32.300Z,1.30
2019-02-09T05:56:59.910Z,2.10
2019-02-09T05:59:27.797Z,1.35
2019-02-09T06:01:55.764Z,1.12
2019-02-09T06:04:23.633Z,1.15
2019-02-09T06:06:52.116Z,1.12
2019-02-09T06:09:19.734Z,1.10
2019-02-09T06:11:47.672Z,1.37
2019-02-09T06:14:15.285Z,1.15
2019-02-09T06:16:43.200Z,1.57
2019-02-09T06:19:11.147Z,1.98
2019-02-09T06:21:38.759Z,1.27
2019-02-09T06:24:06.678Z,1.32
2019-02-09T06:26:34.545Z,1.25
2019-02-09T06:29:02.516Z,1.52
2019-02-09T06:31:30.378Z,1.37
2019-02-09T06:33:58.249Z,1.40
2019-02-09T06:36:26.132Z,1.10
2019-02-09T06:38:54.097Z,1.15
2019-02-09T06:41:22.052Z,1.20
2019-02-09T06:43:50.031Z,1.55
2019-02-09T06:46:17.639Z,1.35
2019-02-09T06:48:45.549Z,1.60
2019-02-09T06:51:13.167Z,1.75
2019-02-09T06:53:40.778Z,1.82
2019-02-09T06:56:08.640Z,1.20
2019-02-09T06:58:36.629Z,1.32
2019-02-09T07:01:04.582Z,1.50
2019-02-09T07:03:32.551Z,1.22
2019-02-09T07:06:00.412Z,2.20
2019-02-09T07:08:28.031Z,1.35
2019-02-09T07:10:55.949Z,1.30
2019-02-09T07:13:23.917Z,1.65
2019-02-09T07:15:51.910Z,1.02
2019-02-09T07:18:19.852Z,0.80
2019-02-09T07:20:47.725Z,1.70
2019-02-09T07:23:15.711Z,1.02
2019-02-09T07:25:43.355Z,2.30
2019-02-09T07:28:10.959Z,2.05
2019-02-09T07:30:38.576Z,1.60
2019-02-09T07:33:06.206Z,2.25
2019-02-09T07:35:33.836Z,0.98
2019-02-09T07:38:01.769Z,0.98
2019-02-09T07:40:29.388Z,0.90
2019-02-09T07:42:57.013Z,1.10
2019-02-09T07:45:24.960Z,2.27
2019-02-09T07:47:52.583Z,1.87
2019-02-09T07:50:20.492Z,2.42
2019-02-09T07:52:48.372Z,1.40
2019-02-09T07:55:16.232Z,1.52
2019-02-09T07:57:44.101Z,1.55
2019-02-09T08:00:11.725Z,1.42
2019-02-09T08:02:39.624Z,2.00
2019-02-09T08:05:07.588Z,2.87
2019-02-09T08:07:35.456Z,1.45
2019-02-09T08:10:03.088Z,2.92
2019-02-09T08:12:30.709Z,1.70
2019-02-09T08:14:58.670Z,1.47
2019-02-09T08:17:26.280Z,1.42
2019-02-09T08:19:53.907Z,1.55
2019-02-09T08:22:21.839Z,1.77
2019-02-09T08:24:49.815Z,1.50
2019-02-09T08:27:23.475Z,1.37
2019-02-09T08:29:47.286Z,1.52
2019-02-09T08:32:14.908Z,1.22
2019-02-09T08:34:42.816Z,1.22
2019-02-09T08:37:10.685Z,1.32
2019-02-09T08:39:38.665Z,4.60
2019-02-09T08:42:06.524Z,1.25
2019-02-09T08:44:34.490Z,2.02
2019-02-09T08:47:02.362Z,2.35
2019-02-09T08:49:29.978Z,3.20
2019-02-09T08:51:57.893Z,2.98
2019-02-09T08:54:25.855Z,6.25
2019-02-09T08:56:53.467Z,3.92
2019-02-09T08:59:21.095Z,3.27
2019-02-09T09:01:48.712Z,3.55
2019-02-09T09:04:16.607Z,9.60
2019-02-09T09:06:44.231Z,5.30
2019-02-09T09:09:12.144Z,8.88
2019-02-09T09:11:40.022Z,3.60
2019-02-09T09:14:07.975Z,8.48
2019-02-09T09:16:35.593Z,3.22
2019-02-09T09:19:03.503Z,4.47
2019-02-09T09:21:31.392Z,5.72
2019-02-09T09:23:59.021Z,5.65
2019-02-09T09:26:26.641Z,4.65
2019-02-09T09:28:54.353Z,9.35
2019-02-09T09:31:22.227Z,6.65
2019-02-09T09:33:49.842Z,1.87
2019-02-09T09:36:17.461Z,2.55
2019-02-09T09:38:45.083Z,4.70
2019-02-09T09:41:12.998Z,4.87
2019-02-09T09:43:40.616Z,4.25
2019-02-09T09:46:08.316Z,4.08
2019-02-09T09:48:36.272Z,4.37
2019-02-09T09:51:04.259Z,2.67
2019-02-09T09:53:31.860Z,2.67
2019-02-09T09:55:59.773Z,3.83
2019-02-09T09:58:27.742Z,5.37
2019-02-09T10:00:55.714Z,3.27
2019-02-09T10:03:23.682Z,2.20
2019-02-09T10:05:51.650Z,3.98
2019-02-09T10:08:19.261Z,3.45
2019-02-09T10:10:46.886Z,3.08
2019-02-09T10:13:14.506Z,12.93
2019-02-09T10:15:42.134Z,7.67
2019-02-09T10:18:09.752Z,3.42
2019-02-09T10:20:37.630Z,6.67
2019-02-09T10:23:05.493Z,8.08
2019-02-09T10:25:33.480Z,8.18
2019-02-09T10:28:01.449Z,5.85
2019-02-09T10:30:29.403Z,5.42
2019-02-09T10:32:57.375Z,15.93
2019-02-09T10:35:25.346Z,3.75
2019-02-09T10:37:53.317Z,6.35
2019-02-09T10:40:20.927Z,9.28
2019-02-09T10:42:48.545Z,7.50
2019-02-09T10:45:16.505Z,9.70
2019-02-09T10:47:44.476Z,5.85
2019-02-09T10:50:12.101Z,6.45
2019-02-09T10:52:39.711Z,4.62
2019-02-09T10:55:07.671Z,4.17
2019-02-09T10:57:35.635Z,4.08
2019-02-09T11:00:03.607Z,4.40
2019-02-09T11:02:31.581Z,4.67
2019-02-09T11:04:59.544Z,5.28
2019-02-09T11:07:27.164Z,5.37
2019-02-09T11:09:55.078Z,2.72
2019-02-09T11:12:22.704Z,3.55
2019-02-09T11:14:50.607Z,1.42
2019-02-09T11:17:18.488Z,2.77
2019-02-09T11:19:46.869Z,1.95
2019-02-09T11:22:14.431Z,1.50
2019-02-09T11:24:42.071Z,2.05
2019-02-09T11:27:09.950Z,2.10
2019-02-09T11:29:37.908Z,3.20
2019-02-09T11:32:05.779Z,4.85
2019-02-09T11:34:33.754Z,2.17
2019-02-09T11:37:01.717Z,4.42
2019-02-09T11:39:30.648Z,1.62
2019-02-09T11:41:58.688Z,4.40
2019-02-09T11:44:26.301Z,1.37
2019-02-09T11:46:53.927Z,2.92
2019-02-09T11:49:21.872Z,2.95
2019-02-09T11:51:50.217Z,4.30
2019-02-09T11:54:18.369Z,2.40
2019-02-09T11:56:46.294Z,12.70
2019-02-09T11:59:14.163Z,6.72
2019-02-09T12:01:41.783Z,9.00
2019-02-09T12:04:09.705Z,9.85
2019-02-09T12:06:37.332Z,5.53
2019-02-09T12:09:05.064Z,9.53
2019-02-09T12:11:33.003Z,12.58
2019-02-09T12:14:00.611Z,9.33
2019-02-09T12:16:28.513Z,6.20
2019-02-09T12:18:56.125Z,7.35
2019-02-09T12:21:23.798Z,4.92
2019-02-09T12:23:51.708Z,9.70
2019-02-09T12:26:19.673Z,3.47
2019-02-09T12:28:47.290Z,5.62
2019-02-09T12:31:14.903Z,4.08
2019-02-09T12:33:42.518Z,7.25
2019-02-09T12:36:10.424Z,3.30
2019-02-09T12:38:38.299Z,5.45
2019-02-09T12:41:06.265Z,25.88
2019-02-09T12:43:34.252Z,20.37
2019-02-09T12:46:02.212Z,21.50
2019-02-09T12:48:30.175Z,14.68
2019-02-09T12:50:58.142Z,18.12
2019-02-09T12:53:26.115Z,13.00
2019-02-09T12:55:54.081Z,10.58
2019-02-09T12:58:21.950Z,14.43
2019-02-09T13:00:49.926Z,21.75
2019-02-09T13:05:10.445Z,27.37
2019-02-09T13:07:38.414Z,45.65
2019-02-09T13:10:06.375Z,105.45
2019-02-09T13:12:34.374Z,102.53
2019-02-09T13:15:02.308Z,101.75
2019-02-09T13:17:29.947Z,115.70
2019-02-09T13:19:57.616Z,120.95
2019-02-09T13:42:10.281Z,1.30
2019-02-09T13:44:38.352Z,2.17
2019-02-09T13:47:05.976Z,3.33
2019-02-09T13:49:33.881Z,2.77
2019-02-09T13:52:02.267Z,1.33
2019-02-09T13:54:29.958Z,1.30
2019-02-09T13:56:57.577Z,0.60
2019-02-09T13:59:25.197Z,1.13
2019-02-09T14:01:52.834Z,2.23
2019-02-09T14:04:20.805Z,4.80
2019-02-09T14:06:48.744Z,1.63
2019-02-09T14:09:16.617Z,2.17
2019-02-09T14:11:44.485Z,1.30
2019-02-09T14:14:12.346Z,2.23
2019-02-09T14:16:40.234Z,1.90
2019-02-09T14:19:08.082Z,2.33
2019-02-09T14:21:35.954Z,3.67
2019-02-09T14:24:03.834Z,1.67
2019-02-09T14:26:31.793Z,2.37
2019-02-09T14:28:59.400Z,1.57
2019-02-09T14:31:27.322Z,1.73
2019-02-09T14:33:55.492Z,2.67
2019-02-09T14:36:23.359Z,2.60
2019-02-09T14:38:50.968Z,1.80
2019-02-09T14:41:18.586Z,1.67
2019-02-09T14:43:46.449Z,1.00
2019-02-09T14:46:14.056Z,2.07
2019-02-09T14:48:41.671Z,1.80
2019-02-09T14:51:09.291Z,1.83
2019-02-09T14:53:37.199Z,1.50
2019-02-09T14:56:04.819Z,2.53
2019-02-09T14:58:32.753Z,2.50
2019-02-09T15:01:00.344Z,2.30
2019-02-09T15:03:30.631Z,2.53
2019-02-09T15:05:57.343Z,2.77
2019-02-09T15:08:25.226Z,4.53
2019-02-09T15:10:53.194Z,1.87
2019-02-09T15:13:20.817Z,1.87
2019-02-09T15:15:48.719Z,4.10
2019-02-09T15:18:16.345Z,5.00
2019-02-09T15:20:44.257Z,1.47
2019-02-09T15:23:11.875Z,1.43
2019-02-09T15:25:39.783Z,3.67
2019-02-09T15:28:07.409Z,1.80
2019-02-09T15:30:35.012Z,2.17
2019-02-09T15:33:02.630Z,1.60
2019-02-09T15:35:30.552Z,1.53
2019-02-09T15:37:58.235Z,2.83
2019-02-09T15:40:25.835Z,2.83
2019-02-09T15:42:53.728Z,2.03
2019-02-09T15:45:21.599Z,2.77
2019-02-09T15:47:49.585Z,2.33
2019-02-09T15:50:17.552Z,1.40
2019-02-09T15:52:45.510Z,1.53
2019-02-09T15:55:13.374Z,1.13
2019-02-09T15:57:41.352Z,1.63
2019-02-09T16:00:09.308Z,1.67
2019-02-09T16:02:36.936Z,1.40
2019-02-09T16:05:04.843Z,3.33
2019-02-09T16:07:32.459Z,1.63
2019-02-09T16:10:00.100Z,2.07
2019-02-09T16:12:28.030Z,1.37
2019-02-09T16:14:55.902Z,3.73
2019-02-09T16:17:23.510Z,3.57
2019-02-09T16:19:51.128Z,4.87
2019-02-09T16:22:18.735Z,1.23
2019-02-09T16:24:46.655Z,2.73
2019-02-09T16:27:14.267Z,1.57
2019-02-09T16:29:42.182Z,3.20
2019-02-09T16:32:09.804Z,1.40
2019-02-09T16:34:37.728Z,2.07
2019-02-09T16:37:05.681Z,2.13
2019-02-09T16:39:33.650Z,3.97
2019-02-09T16:42:01.278Z,1.77
2019-02-09T16:44:29.179Z,4.43
2019-02-09T16:46:57.053Z,1.67
2019-02-09T16:49:24.667Z,3.60
2019-02-09T16:51:52.573Z,3.67
2019-02-09T16:54:20.550Z,2.70
2019-02-09T16:56:48.417Z,2.30
2019-02-09T16:59:16.034Z,4.93
2019-02-09T17:01:43.648Z,5.03
2019-02-09T17:04:11.625Z,2.67
2019-02-09T17:06:39.574Z,3.00
2019-02-09T17:09:07.545Z,3.30
2019-02-09T17:11:35.420Z,2.27
2019-02-09T17:14:03.382Z,2.43
2019-02-09T17:16:31.247Z,2.23
2019-02-09T17:18:59.223Z,2.23
2019-02-09T17:21:27.191Z,6.53
2019-02-09T17:23:54.811Z,1.37
2019-02-09T17:26:22.715Z,3.57
2019-02-09T17:28:50.335Z,4.37
2019-02-09T17:31:18.249Z,4.13
2019-02-09T17:33:46.236Z,2.33
2019-02-09T17:36:14.186Z,2.70
2019-02-09T17:38:41.802Z,5.73
2019-02-09T17:41:09.411Z,3.43
2019-02-09T17:43:37.346Z,1.83
2019-02-09T17:46:05.243Z,3.07
2019-02-09T17:48:33.220Z,1.70
2019-02-09T17:51:00.844Z,2.70
2019-02-09T17:53:28.746Z,2.60
2019-02-09T17:55:56.361Z,7.93
2019-02-09T17:58:24.274Z,2.63
2019-02-09T18:00:56.851Z,7.37
2019-02-09T18:03:24.829Z,5.23
2019-02-09T18:05:52.794Z,3.93
2019-02-09T18:08:20.663Z,3.77
2019-02-09T18:10:48.528Z,1.53
2019-02-09T18:13:16.394Z,2.73
2019-02-09T18:15:44.009Z,2.03
2019-02-09T18:18:11.924Z,1.40
2019-02-09T18:20:39.913Z,4.70
2019-02-09T18:23:07.864Z,2.70
2019-02-09T18:25:35.835Z,2.90
2019-02-09T18:28:03.715Z,2.63
2019-02-09T18:30:31.324Z,2.77
2019-02-09T18:32:59.248Z,4.00
2019-02-09T18:35:27.202Z,2.67
2019-02-09T18:37:55.074Z,2.20
2019-02-09T18:40:22.691Z,2.00
2019-02-09T18:42:50.597Z,2.80
2019-02-09T18:45:18.583Z,4.83
2019-02-09T18:47:46.547Z,4.00
2019-02-09T18:50:14.405Z,2.03
2019-02-09T18:52:42.377Z,2.97
2019-02-09T18:55:09.992Z,1.97
2019-02-09T18:57:37.600Z,1.10
2019-02-09T19:00:05.217Z,1.23
2019-02-09T19:02:38.335Z,1.40
2019-02-09T19:05:04.266Z,1.50
2019-02-09T19:07:31.450Z,2.00
2019-02-09T19:09:59.393Z,4.00
2019-02-09T19:12:27.357Z,2.63
2019-02-09T19:14:55.225Z,4.40
2019-02-09T19:17:23.108Z,3.17
2019-02-09T19:19:51.060Z,1.33
2019-02-09T19:22:20.391Z,2.47
2019-02-09T19:24:48.164Z,3.27
2019-02-09T19:27:16.095Z,3.23
2019-02-09T19:29:43.964Z,4.10
2019-02-09T19:32:11.831Z,3.90
2019-02-09T19:34:40.112Z,4.07
2019-02-09T19:37:08.096Z,2.47
2019-02-09T19:39:36.050Z,2.77
2019-02-09T19:42:04.022Z,1.93
2019-02-09T19:44:31.989Z,3.27
2019-02-09T19:46:59.955Z,4.70
2019-02-09T19:49:27.825Z,1.93
2019-02-09T19:51:55.691Z,2.80
2019-02-09T19:54:23.561Z,2.90
2019-02-09T19:56:51.527Z,3.73
2019-02-09T19:59:19.405Z,5.37
2019-02-09T20:01:47.470Z,2.10
2019-02-09T20:04:15.336Z,2.90
2019-02-09T20:06:43.306Z,8.47
2019-02-09T20:09:11.993Z,1.57
2019-02-09T20:11:39.617Z,2.93
2019-02-09T20:14:07.521Z,3.90
2019-02-09T20:16:35.410Z,6.27
2019-02-09T20:19:03.019Z,6.47
2019-02-09T20:21:30.919Z,2.10
2019-02-09T20:23:58.525Z,10.07
2019-02-09T20:26:26.148Z,4.50
2019-02-09T20:28:53.930Z,3.53
2019-02-09T20:31:21.877Z,4.13
2019-02-09T20:33:49.497Z,6.27
2019-02-09T20:36:17.102Z,5.13
2019-02-09T20:38:44.714Z,2.90
2019-02-09T20:41:12.680Z,2.30
2019-02-09T20:43:40.599Z,4.17
2019-02-09T20:46:08.484Z,3.20
2019-02-09T20:48:36.091Z,2.60
2019-02-09T20:51:03.990Z,3.57
2019-02-09T20:53:31.965Z,3.30
2019-02-09T20:55:59.830Z,5.57
2019-02-09T20:58:27.803Z,2.63
2019-02-09T21:00:55.668Z,2.87
2019-02-09T21:03:23.553Z,3.97
2019-02-09T21:05:51.502Z,5.30
2019-02-09T21:08:19.476Z,6.37
2019-02-09T21:10:47.170Z,4.73
2019-02-09T21:13:14.779Z,3.33
2019-02-09T21:15:42.666Z,1.83
2019-02-09T21:18:10.537Z,3.90
2019-02-09T21:20:38.523Z,2.60
2019-02-09T21:23:06.206Z,3.97
2019-02-09T21:25:34.136Z,3.80
2019-02-09T21:28:01.751Z,3.53
2019-02-09T21:30:29.664Z,5.20
2019-02-09T21:32:57.634Z,2.87
2019-02-09T21:35:25.504Z,3.23
2019-02-09T21:37:53.121Z,3.63
2019-02-09T21:40:21.034Z,3.20
2019-02-09T21:42:49.019Z,2.57
2019-02-09T21:45:16.972Z,4.33
2019-02-09T21:47:44.940Z,3.33
2019-02-09T21:50:12.569Z,2.63
2019-02-09T21:52:40.178Z,2.73
2019-02-09T21:55:08.132Z,2.47
2019-02-09T21:57:35.996Z,4.00
2019-02-09T22:00:03.876Z,4.97
2019-02-09T22:02:31.847Z,3.80
2019-02-09T22:05:00.346Z,3.63
2019-02-09T22:07:28.390Z,3.07
2019-02-09T22:09:56.260Z,1.70
2019-02-09T22:12:24.263Z,5.10
2019-02-09T22:14:52.198Z,4.43
2019-02-09T22:17:19.948Z,5.43
2019-02-09T22:19:47.658Z,4.00
2019-02-09T22:22:15.595Z,4.87
2019-02-09T22:24:43.202Z,4.33
2019-02-09T22:27:11.144Z,7.07
2019-02-09T22:29:39.101Z,4.30
2019-02-09T22:32:07.065Z,4.77
2019-02-09T22:34:34.683Z,2.63
2019-02-09T22:37:02.597Z,2.20
2019-02-09T22:39:30.561Z,2.60
2019-02-09T22:41:58.451Z,3.43
2019-02-09T22:44:26.400Z,4.87
2019-02-09T22:46:54.271Z,2.83
2019-02-09T22:49:22.243Z,7.33
2019-02-09T22:51:49.848Z,6.67
2019-02-09T22:54:17.476Z,4.70
2019-02-09T22:56:45.079Z,4.60
2019-02-09T22:59:12.687Z,3.73
2019-02-09T23:01:40.296Z,2.73
2019-02-09T23:04:07.907Z,3.17
2019-02-09T23:06:35.768Z,2.57
2019-02-09T23:09:04.663Z,4.43
2019-02-09T23:11:32.664Z,4.73
2019-02-09T23:14:00.271Z,2.07
2019-02-09T23:16:27.884Z,5.97
2019-02-09T23:18:55.830Z,2.47
2019-02-09T23:21:23.689Z,2.80
2019-02-09T23:23:51.662Z,7.60
2019-02-09T23:26:19.312Z,4.70
2019-02-09T23:28:46.886Z,5.93
2019-02-09T23:31:14.490Z,5.30
2019-02-09T23:33:42.110Z,4.37
2019-02-09T23:36:16.150Z,2.93
2019-02-09T23:38:39.582Z,2.67
2019-02-09T23:41:07.446Z,3.93
2019-02-09T23:43:35.420Z,3.53
2019-02-09T23:46:03.289Z,3.93
2019-02-09T23:48:31.255Z,4.70
2019-02-09T23:50:59.122Z,2.80
2019-02-09T23:53:27.107Z,2.80
2019-02-09T23:55:55.064Z,4.23
2019-02-09T23:58:23.028Z,3.83
